sensor_id;sensor_type;location;lat;lon;timestamp;P1;durP1;ratioP1;P2;durP2;ratioP2
63536;SDS011;49686;51.880;5.632;2023-08-17T00:01:42;2.58;;;1.90;;
63536;SDS011;49686;51.880;5.632;2023-08-17T00:04:09;5.00;;;2.03;;
63536;SDS011;49686;51.880;5.632;2023-08-17T00:06:37;7.35;;;2.33;;
63536;SDS011;49686;51.880;5.632;2023-08-17T00:09:04;3.03;;;2.15;;
63536;SDS011;49686;51.880;5.632;2023-08-17T00:11:32;5.38;;;2.25;;
63536;SDS011;49686;51.880;5.632;2023-08-17T00:13:59;4.15;;;2.05;;
63536;SDS011;49686;51.880;5.632;2023-08-17T00:16:26;3.67;;;1.88;;
63536;SDS011;49686;51.880;5.632;2023-08-17T00:18:52;4.43;;;2.17;;
63536;SDS011;49686;51.880;5.632;2023-08-17T00:21:19;5.18;;;1.88;;
63536;SDS011;49686;51.880;5.632;2023-08-17T00:23:47;5.15;;;1.88;;
63536;SDS011;49686;51.880;5.632;2023-08-17T00:26:14;5.40;;;2.40;;
63536;SDS011;49686;51.880;5.632;2023-08-17T00:28:41;5.45;;;2.30;;
63536;SDS011;49686;51.880;5.632;2023-08-17T00:31:08;4.25;;;2.05;;
63536;SDS011;49686;51.880;5.632;2023-08-17T00:33:35;4.53;;;2.03;;
63536;SDS011;49686;51.880;5.632;2023-08-17T00:36:02;5.55;;;2.20;;
63536;SDS011;49686;51.880;5.632;2023-08-17T00:38:29;3.60;;;1.98;;
63536;SDS011;49686;51.880;5.632;2023-08-17T00:40:57;4.47;;;2.00;;
63536;SDS011;49686;51.880;5.632;2023-08-17T00:43:24;5.93;;;2.28;;
63536;SDS011;49686;51.880;5.632;2023-08-17T00:45:51;4.38;;;1.88;;
63536;SDS011;49686;51.880;5.632;2023-08-17T00:48:18;3.92;;;2.13;;
63536;SDS011;49686;51.880;5.632;2023-08-17T00:50:45;5.03;;;1.70;;
63536;SDS011;49686;51.880;5.632;2023-08-17T00:53:14;4.78;;;2.15;;
63536;SDS011;49686;51.880;5.632;2023-08-17T00:55:42;4.75;;;1.88;;
63536;SDS011;49686;51.880;5.632;2023-08-17T00:58:11;3.75;;;1.95;;
63536;SDS011;49686;51.880;5.632;2023-08-17T01:00:40;4.63;;;2.03;;
63536;SDS011;49686;51.880;5.632;2023-08-17T01:03:07;3.95;;;1.70;;
63536;SDS011;49686;51.880;5.632;2023-08-17T01:05:34;4.72;;;2.13;;
63536;SDS011;49686;51.880;5.632;2023-08-17T01:08:01;3.67;;;1.92;;
63536;SDS011;49686;51.880;5.632;2023-08-17T01:10:29;4.13;;;1.95;;
63536;SDS011;49686;51.880;5.632;2023-08-17T01:13:05;2.60;;;1.75;;
63536;SDS011;49686;51.880;5.632;2023-08-17T01:15:40;5.22;;;1.70;;
63536;SDS011;49686;51.880;5.632;2023-08-17T01:18:15;3.08;;;2.40;;
63536;SDS011;49686;51.880;5.632;2023-08-17T01:20:50;7.63;;;2.60;;
63536;SDS011;49686;51.880;5.632;2023-08-17T01:23:21;4.38;;;1.80;;
63536;SDS011;49686;51.880;5.632;2023-08-17T01:25:48;5.05;;;2.05;;
63536;SDS011;49686;51.880;5.632;2023-08-17T01:28:15;4.03;;;2.00;;
63536;SDS011;49686;51.880;5.632;2023-08-17T01:30:44;3.88;;;2.25;;
63536;SDS011;49686;51.880;5.632;2023-08-17T01:33:16;4.43;;;1.77;;
63536;SDS011;49686;51.880;5.632;2023-08-17T01:35:51;3.47;;;2.65;;
63536;SDS011;49686;51.880;5.632;2023-08-17T01:38:26;4.07;;;2.20;;
63536;SDS011;49686;51.880;5.632;2023-08-17T01:40:56;5.18;;;2.10;;
63536;SDS011;49686;51.880;5.632;2023-08-17T01:43:24;2.47;;;2.23;;
63536;SDS011;49686;51.880;5.632;2023-08-17T01:45:52;4.63;;;2.00;;
63536;SDS011;49686;51.880;5.632;2023-08-17T01:48:19;5.55;;;2.20;;
63536;SDS011;49686;51.880;5.632;2023-08-17T01:50:45;4.40;;;2.20;;
63536;SDS011;49686;51.880;5.632;2023-08-17T01:53:12;4.40;;;2.20;;
63536;SDS011;49686;51.880;5.632;2023-08-17T01:55:40;4.78;;;2.10;;
63536;SDS011;49686;51.880;5.632;2023-08-17T01:58:08;5.60;;;2.60;;
63536;SDS011;49686;51.880;5.632;2023-08-17T02:00:35;3.85;;;2.30;;
63536;SDS011;49686;51.880;5.632;2023-08-17T02:03:02;4.85;;;2.00;;
63536;SDS011;49686;51.880;5.632;2023-08-17T02:05:29;4.78;;;2.63;;
63536;SDS011;49686;51.880;5.632;2023-08-17T02:07:58;5.00;;;2.47;;
63536;SDS011;49686;51.880;5.632;2023-08-17T02:10:25;7.75;;;1.98;;
63536;SDS011;49686;51.880;5.632;2023-08-17T02:12:53;4.85;;;2.22;;
63536;SDS011;49686;51.880;5.632;2023-08-17T02:15:27;5.10;;;2.05;;
63536;SDS011;49686;51.880;5.632;2023-08-17T02:17:53;5.88;;;2.35;;
63536;SDS011;49686;51.880;5.632;2023-08-17T02:20:20;6.75;;;1.90;;
63536;SDS011;49686;51.880;5.632;2023-08-17T02:22:47;5.30;;;2.35;;
63536;SDS011;49686;51.880;5.632;2023-08-17T02:25:14;5.72;;;2.25;;
63536;SDS011;49686;51.880;5.632;2023-08-17T02:27:41;6.75;;;2.17;;
63536;SDS011;49686;51.880;5.632;2023-08-17T02:30:10;6.18;;;1.90;;
63536;SDS011;49686;51.880;5.632;2023-08-17T02:32:37;4.22;;;2.35;;
63536;SDS011;49686;51.880;5.632;2023-08-17T02:35:05;7.35;;;2.45;;
63536;SDS011;49686;51.880;5.632;2023-08-17T02:37:32;6.22;;;2.10;;
63536;SDS011;49686;51.880;5.632;2023-08-17T02:39:59;5.53;;;2.38;;
63536;SDS011;49686;51.880;5.632;2023-08-17T02:42:26;5.05;;;2.45;;
63536;SDS011;49686;51.880;5.632;2023-08-17T02:44:52;6.75;;;2.42;;
63536;SDS011;49686;51.880;5.632;2023-08-17T02:47:21;6.35;;;2.20;;
63536;SDS011;49686;51.880;5.632;2023-08-17T02:49:47;8.23;;;2.60;;
63536;SDS011;49686;51.880;5.632;2023-08-17T02:52:14;4.47;;;2.25;;
63536;SDS011;49686;51.880;5.632;2023-08-17T02:54:41;4.63;;;2.13;;
63536;SDS011;49686;51.880;5.632;2023-08-17T02:57:08;7.68;;;2.63;;
63536;SDS011;49686;51.880;5.632;2023-08-17T02:59:35;5.65;;;2.03;;
63536;SDS011;49686;51.880;5.632;2023-08-17T03:02:02;5.63;;;2.63;;
63536;SDS011;49686;51.880;5.632;2023-08-17T03:04:30;4.50;;;2.15;;
63536;SDS011;49686;51.880;5.632;2023-08-17T03:06:57;6.03;;;2.10;;
63536;SDS011;49686;51.880;5.632;2023-08-17T03:09:24;4.28;;;2.33;;
63536;SDS011;49686;51.880;5.632;2023-08-17T03:11:51;5.22;;;2.22;;
63536;SDS011;49686;51.880;5.632;2023-08-17T03:14:18;6.20;;;2.30;;
63536;SDS011;49686;51.880;5.632;2023-08-17T03:16:44;5.90;;;2.70;;
63536;SDS011;49686;51.880;5.632;2023-08-17T03:19:11;5.13;;;2.17;;
63536;SDS011;49686;51.880;5.632;2023-08-17T03:21:39;9.57;;;2.47;;
63536;SDS011;49686;51.880;5.632;2023-08-17T03:24:06;4.60;;;1.98;;
63536;SDS011;49686;51.880;5.632;2023-08-17T03:26:33;7.43;;;2.60;;
63536;SDS011;49686;51.880;5.632;2023-08-17T03:29:00;5.38;;;2.28;;
63536;SDS011;49686;51.880;5.632;2023-08-17T03:31:28;5.47;;;2.15;;
63536;SDS011;49686;51.880;5.632;2023-08-17T03:33:54;3.90;;;2.08;;
63536;SDS011;49686;51.880;5.632;2023-08-17T03:36:21;5.57;;;2.70;;
63536;SDS011;49686;51.880;5.632;2023-08-17T03:38:50;2.78;;;2.00;;
63536;SDS011;49686;51.880;5.632;2023-08-17T03:41:18;5.05;;;2.10;;
63536;SDS011;49686;51.880;5.632;2023-08-17T03:43:47;5.20;;;1.83;;
63536;SDS011;49686;51.880;5.632;2023-08-17T03:46:15;6.20;;;1.97;;
63536;SDS011;49686;51.880;5.632;2023-08-17T03:48:42;3.53;;;2.20;;
63536;SDS011;49686;51.880;5.632;2023-08-17T03:51:08;5.20;;;2.30;;
63536;SDS011;49686;51.880;5.632;2023-08-17T03:53:35;4.03;;;1.90;;
63536;SDS011;49686;51.880;5.632;2023-08-17T03:56:03;8.85;;;2.40;;
63536;SDS011;49686;51.880;5.632;2023-08-17T03:58:30;5.38;;;1.88;;
63536;SDS011;49686;51.880;5.632;2023-08-17T04:00:57;6.82;;;2.50;;
63536;SDS011;49686;51.880;5.632;2023-08-17T04:03:24;4.45;;;2.05;;
63536;SDS011;49686;51.880;5.632;2023-08-17T04:05:51;4.32;;;2.03;;
63536;SDS011;49686;51.880;5.632;2023-08-17T04:08:18;4.13;;;1.98;;
63536;SDS011;49686;51.880;5.632;2023-08-17T04:10:44;3.92;;;2.15;;
63536;SDS011;49686;51.880;5.632;2023-08-17T04:13:13;4.57;;;2.35;;
63536;SDS011;49686;51.880;5.632;2023-08-17T04:15:39;5.18;;;1.92;;
63536;SDS011;49686;51.880;5.632;2023-08-17T04:18:06;4.82;;;2.05;;
63536;SDS011;49686;51.880;5.632;2023-08-17T04:20:33;2.72;;;2.00;;
63536;SDS011;49686;51.880;5.632;2023-08-17T04:23:00;3.67;;;1.92;;
63536;SDS011;49686;51.880;5.632;2023-08-17T04:25:27;4.65;;;1.90;;
63536;SDS011;49686;51.880;5.632;2023-08-17T04:27:53;4.78;;;2.20;;
63536;SDS011;49686;51.880;5.632;2023-08-17T04:30:22;3.40;;;2.08;;
63536;SDS011;49686;51.880;5.632;2023-08-17T04:32:49;3.90;;;2.50;;
63536;SDS011;49686;51.880;5.632;2023-08-17T04:35:16;6.70;;;2.03;;
63536;SDS011;49686;51.880;5.632;2023-08-17T04:37:42;5.38;;;2.00;;
63536;SDS011;49686;51.880;5.632;2023-08-17T04:40:09;4.53;;;1.95;;
63536;SDS011;49686;51.880;5.632;2023-08-17T04:42:36;5.18;;;2.60;;
63536;SDS011;49686;51.880;5.632;2023-08-17T04:45:03;5.72;;;2.20;;
63536;SDS011;49686;51.880;5.632;2023-08-17T04:47:32;7.05;;;2.13;;
63536;SDS011;49686;51.880;5.632;2023-08-17T04:49:59;6.65;;;2.72;;
63536;SDS011;49686;51.880;5.632;2023-08-17T04:52:27;3.95;;;2.20;;
63536;SDS011;49686;51.880;5.632;2023-08-17T04:54:55;5.72;;;3.05;;
63536;SDS011;49686;51.880;5.632;2023-08-17T04:57:22;6.53;;;2.55;;
63536;SDS011;49686;51.880;5.632;2023-08-17T04:59:49;9.68;;;2.50;;
63536;SDS011;49686;51.880;5.632;2023-08-17T05:02:17;3.25;;;2.05;;
63536;SDS011;49686;51.880;5.632;2023-08-17T05:04:45;6.93;;;2.10;;
63536;SDS011;49686;51.880;5.632;2023-08-17T05:07:12;5.45;;;2.60;;
63536;SDS011;49686;51.880;5.632;2023-08-17T05:09:39;8.05;;;2.42;;
63536;SDS011;49686;51.880;5.632;2023-08-17T05:12:07;5.05;;;2.25;;
63536;SDS011;49686;51.880;5.632;2023-08-17T05:14:34;3.97;;;2.13;;
63536;SDS011;49686;51.880;5.632;2023-08-17T05:17:01;5.22;;;2.30;;
63536;SDS011;49686;51.880;5.632;2023-08-17T05:19:29;6.72;;;2.10;;
63536;SDS011;49686;51.880;5.632;2023-08-17T05:21:57;4.93;;;2.72;;
63536;SDS011;49686;51.880;5.632;2023-08-17T05:24:24;4.50;;;2.33;;
63536;SDS011;49686;51.880;5.632;2023-08-17T05:26:51;6.82;;;2.05;;
63536;SDS011;49686;51.880;5.632;2023-08-17T05:29:18;4.40;;;2.20;;
63536;SDS011;49686;51.880;5.632;2023-08-17T05:31:45;6.13;;;2.20;;
63536;SDS011;49686;51.880;5.632;2023-08-17T05:34:12;4.10;;;2.00;;
63536;SDS011;49686;51.880;5.632;2023-08-17T05:36:38;4.13;;;2.22;;
63536;SDS011;49686;51.880;5.632;2023-08-17T05:39:06;5.10;;;1.90;;
63536;SDS011;49686;51.880;5.632;2023-08-17T05:41:33;5.93;;;2.10;;
63536;SDS011;49686;51.880;5.632;2023-08-17T05:44:00;4.53;;;2.08;;
63536;SDS011;49686;51.880;5.632;2023-08-17T05:46:29;5.38;;;2.00;;
63536;SDS011;49686;51.880;5.632;2023-08-17T05:48:56;5.32;;;1.90;;
63536;SDS011;49686;51.880;5.632;2023-08-17T05:51:23;6.40;;;2.15;;
63536;SDS011;49686;51.880;5.632;2023-08-17T05:53:50;3.42;;;1.50;;
63536;SDS011;49686;51.880;5.632;2023-08-17T05:56:18;4.97;;;1.60;;
63536;SDS011;49686;51.880;5.632;2023-08-17T05:58:45;5.43;;;1.73;;
63536;SDS011;49686;51.880;5.632;2023-08-17T06:01:12;3.08;;;2.10;;
63536;SDS011;49686;51.880;5.632;2023-08-17T06:03:40;2.67;;;1.27;;
63536;SDS011;49686;51.880;5.632;2023-08-17T06:06:07;4.65;;;1.60;;
63536;SDS011;49686;51.880;5.632;2023-08-17T06:08:34;4.55;;;1.45;;
63536;SDS011;49686;51.880;5.632;2023-08-17T06:11:00;5.30;;;1.55;;
63536;SDS011;49686;51.880;5.632;2023-08-17T06:13:29;5.07;;;1.70;;
63536;SDS011;49686;51.880;5.632;2023-08-17T06:15:55;3.70;;;1.52;;
63536;SDS011;49686;51.880;5.632;2023-08-17T06:18:24;5.32;;;1.60;;
63536;SDS011;49686;51.880;5.632;2023-08-17T06:20:51;3.10;;;1.75;;
63536;SDS011;49686;51.880;5.632;2023-08-17T06:23:18;3.97;;;1.50;;
63536;SDS011;49686;51.880;5.632;2023-08-17T06:25:44;6.00;;;2.42;;
63536;SDS011;49686;51.880;5.632;2023-08-17T06:28:11;4.10;;;1.92;;
63536;SDS011;49686;51.880;5.632;2023-08-17T06:30:40;5.25;;;1.80;;
63536;SDS011;49686;51.880;5.632;2023-08-17T06:33:07;4.63;;;1.50;;
63536;SDS011;49686;51.880;5.632;2023-08-17T06:35:34;4.53;;;2.00;;
63536;SDS011;49686;51.880;5.632;2023-08-17T06:38:01;6.82;;;2.00;;
63536;SDS011;49686;51.880;5.632;2023-08-17T06:40:28;3.95;;;2.13;;
63536;SDS011;49686;51.880;5.632;2023-08-17T06:42:54;7.93;;;1.98;;
63536;SDS011;49686;51.880;5.632;2023-08-17T06:45:21;5.25;;;2.10;;
63536;SDS011;49686;51.880;5.632;2023-08-17T06:47:49;4.75;;;2.20;;
63536;SDS011;49686;51.880;5.632;2023-08-17T06:50:16;5.03;;;2.58;;
63536;SDS011;49686;51.880;5.632;2023-08-17T06:52:43;7.65;;;1.77;;
63536;SDS011;49686;51.880;5.632;2023-08-17T06:55:10;3.28;;;1.83;;
63536;SDS011;49686;51.880;5.632;2023-08-17T06:57:37;6.28;;;1.90;;
63536;SDS011;49686;51.880;5.632;2023-08-17T07:00:04;4.20;;;1.77;;
63536;SDS011;49686;51.880;5.632;2023-08-17T07:02:32;5.00;;;2.00;;
63536;SDS011;49686;51.880;5.632;2023-08-17T07:05:20;3.47;;;1.80;;
63536;SDS011;49686;51.880;5.632;2023-08-17T07:07:46;3.60;;;1.73;;
63536;SDS011;49686;51.880;5.632;2023-08-17T07:10:13;2.85;;;1.80;;
63536;SDS011;49686;51.880;5.632;2023-08-17T07:12:40;5.22;;;1.70;;
63536;SDS011;49686;51.880;5.632;2023-08-17T07:15:07;3.95;;;1.80;;
63536;SDS011;49686;51.880;5.632;2023-08-17T07:17:34;3.42;;;1.80;;
63536;SDS011;49686;51.880;5.632;2023-08-17T07:20:02;4.47;;;1.90;;
63536;SDS011;49686;51.880;5.632;2023-08-17T07:22:33;9.27;;;2.00;;
63536;SDS011;49686;51.880;5.632;2023-08-17T07:25:00;4.25;;;1.67;;
63536;SDS011;49686;51.880;5.632;2023-08-17T07:27:28;4.13;;;1.80;;
63536;SDS011;49686;51.880;5.632;2023-08-17T07:29:55;6.00;;;1.98;;
63536;SDS011;49686;51.880;5.632;2023-08-17T07:32:22;6.13;;;1.85;;
63536;SDS011;49686;51.880;5.632;2023-08-17T07:34:49;3.88;;;1.83;;
63536;SDS011;49686;51.880;5.632;2023-08-17T07:37:16;4.20;;;1.75;;
63536;SDS011;49686;51.880;5.632;2023-08-17T07:39:44;3.20;;;1.83;;
63536;SDS011;49686;51.880;5.632;2023-08-17T07:42:11;4.97;;;1.90;;
63536;SDS011;49686;51.880;5.632;2023-08-17T07:44:38;4.00;;;1.80;;
63536;SDS011;49686;51.880;5.632;2023-08-17T07:47:05;4.10;;;1.80;;
63536;SDS011;49686;51.880;5.632;2023-08-17T07:49:33;5.78;;;1.60;;
63536;SDS011;49686;51.880;5.632;2023-08-17T07:52:04;3.83;;;1.65;;
63536;SDS011;49686;51.880;5.632;2023-08-17T07:54:31;5.15;;;1.65;;
63536;SDS011;49686;51.880;5.632;2023-08-17T07:56:59;4.63;;;1.75;;
63536;SDS011;49686;51.880;5.632;2023-08-17T07:59:27;6.18;;;2.20;;
63536;SDS011;49686;51.880;5.632;2023-08-17T08:01:54;3.10;;;1.80;;
63536;SDS011;49686;51.880;5.632;2023-08-17T08:04:21;2.78;;;1.90;;
63536;SDS011;49686;51.880;5.632;2023-08-17T08:06:48;6.90;;;2.15;;
63536;SDS011;49686;51.880;5.632;2023-08-17T08:09:15;4.93;;;2.40;;
63536;SDS011;49686;51.880;5.632;2023-08-17T08:11:42;7.20;;;2.28;;
63536;SDS011;49686;51.880;5.632;2023-08-17T08:14:10;7.28;;;2.80;;
63536;SDS011;49686;51.880;5.632;2023-08-17T08:16:37;5.88;;;2.00;;
63536;SDS011;49686;51.880;5.632;2023-08-17T08:19:04;6.57;;;2.42;;
63536;SDS011;49686;51.880;5.632;2023-08-17T08:21:31;6.57;;;2.28;;
63536;SDS011;49686;51.880;5.632;2023-08-17T08:23:58;6.10;;;2.10;;
63536;SDS011;49686;51.880;5.632;2023-08-17T08:26:25;6.18;;;2.28;;
63536;SDS011;49686;51.880;5.632;2023-08-17T08:28:51;5.20;;;2.17;;
63536;SDS011;49686;51.880;5.632;2023-08-17T08:31:19;4.30;;;2.47;;
63536;SDS011;49686;51.880;5.632;2023-08-17T08:33:46;7.95;;;2.42;;
63536;SDS011;49686;51.880;5.632;2023-08-17T08:36:13;4.32;;;2.33;;
63536;SDS011;49686;51.880;5.632;2023-08-17T08:38:40;5.90;;;2.25;;
63536;SDS011;49686;51.880;5.632;2023-08-17T08:41:07;6.15;;;2.42;;
63536;SDS011;49686;51.880;5.632;2023-08-17T08:43:35;7.38;;;2.25;;
63536;SDS011;49686;51.880;5.632;2023-08-17T08:46:04;6.55;;;2.33;;
63536;SDS011;49686;51.880;5.632;2023-08-17T08:48:32;5.15;;;2.60;;
63536;SDS011;49686;51.880;5.632;2023-08-17T08:51:01;5.47;;;2.40;;
63536;SDS011;49686;51.880;5.632;2023-08-17T08:53:36;5.40;;;2.53;;
63536;SDS011;49686;51.880;5.632;2023-08-17T08:56:04;5.00;;;2.80;;
63536;SDS011;49686;51.880;5.632;2023-08-17T08:58:37;4.97;;;2.70;;
63536;SDS011;49686;51.880;5.632;2023-08-17T09:01:06;6.25;;;2.50;;
63536;SDS011;49686;51.880;5.632;2023-08-17T09:03:36;6.10;;;2.58;;
63536;SDS011;49686;51.880;5.632;2023-08-17T09:06:03;8.27;;;2.60;;
63536;SDS011;49686;51.880;5.632;2023-08-17T09:08:32;8.45;;;2.55;;
63536;SDS011;49686;51.880;5.632;2023-08-17T09:10:59;4.90;;;2.67;;
63536;SDS011;49686;51.880;5.632;2023-08-17T09:13:26;7.40;;;2.70;;
63536;SDS011;49686;51.880;5.632;2023-08-17T09:15:53;8.45;;;2.72;;
63536;SDS011;49686;51.880;5.632;2023-08-17T09:18:19;5.63;;;2.45;;
63536;SDS011;49686;51.880;5.632;2023-08-17T09:20:48;11.48;;;3.00;;
63536;SDS011;49686;51.880;5.632;2023-08-17T09:23:18;6.25;;;3.05;;
63536;SDS011;49686;51.880;5.632;2023-08-17T09:25:48;10.82;;;3.50;;
63536;SDS011;49686;51.880;5.632;2023-08-17T09:28:16;6.70;;;2.97;;
63536;SDS011;49686;51.880;5.632;2023-08-17T09:30:54;6.97;;;3.22;;
63536;SDS011;49686;51.880;5.632;2023-08-17T09:33:23;5.32;;;3.05;;
63536;SDS011;49686;51.880;5.632;2023-08-17T09:35:52;6.95;;;3.42;;
63536;SDS011;49686;51.880;5.632;2023-08-17T09:38:24;7.97;;;3.42;;
63536;SDS011;49686;51.880;5.632;2023-08-17T09:40:51;4.57;;;3.47;;
63536;SDS011;49686;51.880;5.632;2023-08-17T09:43:18;11.30;;;4.15;;
63536;SDS011;49686;51.880;5.632;2023-08-17T09:45:45;10.10;;;3.90;;
63536;SDS011;49686;51.880;5.632;2023-08-17T09:48:14;7.72;;;3.78;;
63536;SDS011;49686;51.880;5.632;2023-08-17T09:53:13;11.05;;;3.42;;
63536;SDS011;49686;51.880;5.632;2023-08-17T09:55:45;8.23;;;3.60;;
63536;SDS011;49686;51.880;5.632;2023-08-17T09:58:17;8.40;;;3.80;;
63536;SDS011;49686;51.880;5.632;2023-08-17T10:00:47;8.88;;;3.78;;
63536;SDS011;49686;51.880;5.632;2023-08-17T10:03:18;6.20;;;3.40;;
63536;SDS011;49686;51.880;5.632;2023-08-17T10:08:17;7.40;;;3.78;;
63536;SDS011;49686;51.880;5.632;2023-08-17T10:10:46;7.22;;;3.63;;
63536;SDS011;49686;51.880;5.632;2023-08-17T10:13:16;8.23;;;3.92;;
63536;SDS011;49686;51.880;5.632;2023-08-17T10:15:57;7.80;;;3.63;;
63536;SDS011;49686;51.880;5.632;2023-08-17T10:18:29;8.43;;;3.67;;
63536;SDS011;49686;51.880;5.632;2023-08-17T10:21:02;9.65;;;3.83;;
63536;SDS011;49686;51.880;5.632;2023-08-17T10:23:34;10.70;;;3.88;;
63536;SDS011;49686;51.880;5.632;2023-08-17T10:26:07;8.85;;;4.07;;
63536;SDS011;49686;51.880;5.632;2023-08-17T10:28:34;9.77;;;4.53;;
63536;SDS011;49686;51.880;5.632;2023-08-17T10:31:01;7.93;;;4.03;;
63536;SDS011;49686;51.880;5.632;2023-08-17T10:33:28;9.43;;;4.20;;
63536;SDS011;49686;51.880;5.632;2023-08-17T10:35:55;5.50;;;3.75;;
63536;SDS011;49686;51.880;5.632;2023-08-17T10:38:23;4.63;;;3.17;;
63536;SDS011;49686;51.880;5.632;2023-08-17T10:43:55;8.70;;;4.32;;
63536;SDS011;49686;51.880;5.632;2023-08-17T10:46:31;6.93;;;3.97;;
63536;SDS011;49686;51.880;5.632;2023-08-17T10:49:00;7.88;;;4.05;;
63536;SDS011;49686;51.880;5.632;2023-08-17T10:51:29;10.27;;;4.93;;
63536;SDS011;49686;51.880;5.632;2023-08-17T10:53:56;7.57;;;4.43;;
63536;SDS011;49686;51.880;5.632;2023-08-17T10:56:27;12.77;;;5.28;;
63536;SDS011;49686;51.880;5.632;2023-08-17T10:58:54;8.88;;;4.43;;
63536;SDS011;49686;51.880;5.632;2023-08-17T11:01:32;8.32;;;4.38;;
63536;SDS011;49686;51.880;5.632;2023-08-17T11:04:10;9.07;;;4.78;;
63536;SDS011;49686;51.880;5.632;2023-08-17T11:06:38;11.95;;;5.20;;
63536;SDS011;49686;51.880;5.632;2023-08-17T11:09:06;9.40;;;4.90;;
63536;SDS011;49686;51.880;5.632;2023-08-17T11:11:35;8.40;;;4.43;;
63536;SDS011;49686;51.880;5.632;2023-08-17T11:14:02;8.05;;;4.97;;
63536;SDS011;49686;51.880;5.632;2023-08-17T11:16:29;9.02;;;4.55;;
63536;SDS011;49686;51.880;5.632;2023-08-17T11:18:56;10.75;;;5.15;;
63536;SDS011;49686;51.880;5.632;2023-08-17T11:21:23;9.23;;;4.15;;
63536;SDS011;49686;51.880;5.632;2023-08-17T11:23:50;9.45;;;4.75;;
63536;SDS011;49686;51.880;5.632;2023-08-17T11:26:17;11.05;;;4.57;;
63536;SDS011;49686;51.880;5.632;2023-08-17T11:28:46;11.25;;;4.90;;
63536;SDS011;49686;51.880;5.632;2023-08-17T11:31:13;10.40;;;5.30;;
63536;SDS011;49686;51.880;5.632;2023-08-17T11:33:40;11.18;;;4.95;;
63536;SDS011;49686;51.880;5.632;2023-08-17T11:36:08;8.05;;;4.60;;
63536;SDS011;49686;51.880;5.632;2023-08-17T11:38:36;10.80;;;4.82;;
63536;SDS011;49686;51.880;5.632;2023-08-17T11:41:04;7.95;;;4.88;;
63536;SDS011;49686;51.880;5.632;2023-08-17T11:43:31;13.65;;;5.07;;
63536;SDS011;49686;51.880;5.632;2023-08-17T11:46:00;7.90;;;4.40;;
63536;SDS011;49686;51.880;5.632;2023-08-17T11:48:28;7.32;;;4.47;;
63536;SDS011;49686;51.880;5.632;2023-08-17T11:51:02;9.95;;;4.60;;
63536;SDS011;49686;51.880;5.632;2023-08-17T11:53:32;8.50;;;4.57;;
63536;SDS011;49686;51.880;5.632;2023-08-17T11:56:00;8.57;;;4.22;;
63536;SDS011;49686;51.880;5.632;2023-08-17T11:58:41;8.35;;;4.38;;
63536;SDS011;49686;51.880;5.632;2023-08-17T12:01:10;11.68;;;4.55;;
63536;SDS011;49686;51.880;5.632;2023-08-17T12:03:39;7.43;;;4.15;;
63536;SDS011;49686;51.880;5.632;2023-08-17T12:06:06;9.00;;;4.60;;
63536;SDS011;49686;51.880;5.632;2023-08-17T12:08:33;8.13;;;4.25;;
63536;SDS011;49686;51.880;5.632;2023-08-17T12:11:00;8.90;;;5.47;;
63536;SDS011;49686;51.880;5.632;2023-08-17T12:13:29;9.30;;;5.22;;
63536;SDS011;49686;51.880;5.632;2023-08-17T12:15:57;10.93;;;5.18;;
63536;SDS011;49686;51.880;5.632;2023-08-17T12:18:26;7.90;;;4.93;;
63536;SDS011;49686;51.880;5.632;2023-08-17T12:20:52;8.05;;;4.05;;
63536;SDS011;49686;51.880;5.632;2023-08-17T12:23:20;8.43;;;5.07;;
63536;SDS011;49686;51.880;5.632;2023-08-17T12:25:51;11.05;;;4.38;;
63536;SDS011;49686;51.880;5.632;2023-08-17T12:28:19;8.73;;;4.30;;
63536;SDS011;49686;51.880;5.632;2023-08-17T12:30:45;5.55;;;4.15;;
63536;SDS011;49686;51.880;5.632;2023-08-17T12:33:12;5.75;;;4.28;;
63536;SDS011;49686;51.880;5.632;2023-08-17T12:35:41;8.00;;;4.90;;
63536;SDS011;49686;51.880;5.632;2023-08-17T12:38:07;8.35;;;4.90;;
63536;SDS011;49686;51.880;5.632;2023-08-17T12:40:34;8.65;;;4.63;;
63536;SDS011;49686;51.880;5.632;2023-08-17T12:43:01;6.13;;;4.15;;
63536;SDS011;49686;51.880;5.632;2023-08-17T12:45:28;8.32;;;4.25;;
63536;SDS011;49686;51.880;5.632;2023-08-17T12:47:55;9.43;;;4.57;;
63536;SDS011;49686;51.880;5.632;2023-08-17T12:50:24;8.77;;;5.40;;
63536;SDS011;49686;51.880;5.632;2023-08-17T12:52:52;10.68;;;5.20;;
63536;SDS011;49686;51.880;5.632;2023-08-17T12:55:19;14.63;;;5.18;;
63536;SDS011;49686;51.880;5.632;2023-08-17T12:57:46;7.38;;;5.10;;
63536;SDS011;49686;51.880;5.632;2023-08-17T13:00:13;7.55;;;4.95;;
63536;SDS011;49686;51.880;5.632;2023-08-17T13:02:41;10.17;;;5.13;;
63536;SDS011;49686;51.880;5.632;2023-08-17T13:05:08;7.82;;;4.97;;
63536;SDS011;49686;51.880;5.632;2023-08-17T13:07:38;11.23;;;4.95;;
63536;SDS011;49686;51.880;5.632;2023-08-17T13:10:06;8.27;;;4.85;;
63536;SDS011;49686;51.880;5.632;2023-08-17T13:12:36;8.18;;;5.10;;
63536;SDS011;49686;51.880;5.632;2023-08-17T13:15:03;8.88;;;5.65;;
63536;SDS011;49686;51.880;5.632;2023-08-17T13:17:30;6.87;;;4.37;;
63536;SDS011;49686;51.880;5.632;2023-08-17T13:19:57;7.82;;;4.60;;
63536;SDS011;49686;51.880;5.632;2023-08-17T13:22:25;8.40;;;5.22;;
63536;SDS011;49686;51.880;5.632;2023-08-17T13:24:52;8.45;;;4.90;;
63536;SDS011;49686;51.880;5.632;2023-08-17T13:27:20;8.23;;;5.00;;
63536;SDS011;49686;51.880;5.632;2023-08-17T13:29:47;9.70;;;6.03;;
63536;SDS011;49686;51.880;5.632;2023-08-17T13:32:14;9.38;;;5.50;;
63536;SDS011;49686;51.880;5.632;2023-08-17T13:34:41;10.32;;;6.20;;
63536;SDS011;49686;51.880;5.632;2023-08-17T13:37:08;9.05;;;5.72;;
63536;SDS011;49686;51.880;5.632;2023-08-17T13:39:35;9.43;;;5.15;;
63536;SDS011;49686;51.880;5.632;2023-08-17T13:42:02;8.52;;;5.60;;
63536;SDS011;49686;51.880;5.632;2023-08-17T13:44:30;9.52;;;6.40;;
63536;SDS011;49686;51.880;5.632;2023-08-17T13:46:57;8.30;;;5.88;;
63536;SDS011;49686;51.880;5.632;2023-08-17T13:49:24;8.88;;;5.78;;
63536;SDS011;49686;51.880;5.632;2023-08-17T13:51:51;8.00;;;5.80;;
63536;SDS011;49686;51.880;5.632;2023-08-17T13:54:18;10.18;;;5.63;;
63536;SDS011;49686;51.880;5.632;2023-08-17T13:56:45;10.52;;;6.22;;
63536;SDS011;49686;51.880;5.632;2023-08-17T13:59:11;7.75;;;5.63;;
63536;SDS011;49686;51.880;5.632;2023-08-17T14:01:40;9.63;;;5.97;;
63536;SDS011;49686;51.880;5.632;2023-08-17T14:04:07;7.55;;;5.28;;
63536;SDS011;49686;51.880;5.632;2023-08-17T14:06:34;8.93;;;5.47;;
63536;SDS011;49686;51.880;5.632;2023-08-17T14:09:01;10.18;;;5.65;;
63536;SDS011;49686;51.880;5.632;2023-08-17T14:11:28;8.50;;;5.22;;
63536;SDS011;49686;51.880;5.632;2023-08-17T14:13:55;10.73;;;5.22;;
63536;SDS011;49686;51.880;5.632;2023-08-17T14:16:22;9.13;;;6.15;;
63536;SDS011;49686;51.880;5.632;2023-08-17T14:18:50;10.85;;;6.50;;
63536;SDS011;49686;51.880;5.632;2023-08-17T14:21:17;7.72;;;5.85;;
63536;SDS011;49686;51.880;5.632;2023-08-17T14:23:43;8.95;;;5.75;;
63536;SDS011;49686;51.880;5.632;2023-08-17T14:26:10;9.45;;;5.63;;
63536;SDS011;49686;51.880;5.632;2023-08-17T14:28:37;11.00;;;6.18;;
63536;SDS011;49686;51.880;5.632;2023-08-17T14:31:09;8.95;;;5.65;;
63536;SDS011;49686;51.880;5.632;2023-08-17T14:33:41;8.38;;;5.60;;
63536;SDS011;49686;51.880;5.632;2023-08-17T14:36:12;11.45;;;5.63;;
63536;SDS011;49686;51.880;5.632;2023-08-17T14:38:45;9.43;;;5.90;;
63536;SDS011;49686;51.880;5.632;2023-08-17T14:41:12;9.55;;;5.93;;
63536;SDS011;49686;51.880;5.632;2023-08-17T14:43:39;10.90;;;5.60;;
63536;SDS011;49686;51.880;5.632;2023-08-17T14:46:06;8.43;;;5.75;;
63536;SDS011;49686;51.880;5.632;2023-08-17T14:48:32;8.20;;;5.38;;
63536;SDS011;49686;51.880;5.632;2023-08-17T14:50:59;7.15;;;5.45;;
63536;SDS011;49686;51.880;5.632;2023-08-17T14:53:28;9.80;;;5.95;;
63536;SDS011;49686;51.880;5.632;2023-08-17T14:55:55;9.73;;;5.60;;
63536;SDS011;49686;51.880;5.632;2023-08-17T14:58:21;8.27;;;5.93;;